createdAt,value
2018-06-25T00:00:11.522Z,13.27
2018-06-25T00:02:40.054Z,13.28
2018-06-25T00:05:08.598Z,13.29
2018-06-25T00:07:37.289Z,13.30
2018-06-25T00:10:05.776Z,13.31
2018-06-25T00:12:35.465Z,13.31
2018-06-25T00:15:04.926Z,13.29
2018-06-25T00:17:33.465Z,13.26
2018-06-25T00:20:02.176Z,13.25
2018-06-25T00:22:30.617Z,13.24
2018-06-25T00:24:59.341Z,13.01
2018-06-25T00:27:27.857Z,13.19
2018-06-25T00:29:56.418Z,13.16
2018-06-25T00:32:24.970Z,13.15
2018-06-25T00:34:53.637Z,13.12
2018-06-25T00:37:22.069Z,13.08
2018-06-25T00:39:50.853Z,13.07
2018-06-25T00:42:19.734Z,13.06
2018-06-25T00:44:48.710Z,13.02
2018-06-25T00:47:17.502Z,13.00
2018-06-25T00:49:46.093Z,12.97
2018-06-25T00:52:14.542Z,12.95
2018-06-25T00:54:43.244Z,12.92
2018-06-25T00:57:12.821Z,12.89
2018-06-25T00:59:51.522Z,12.86
2018-06-25T01:02:20.521Z,12.83
2018-06-25T01:04:49.441Z,12.79
2018-06-25T01:07:18.529Z,12.77
2018-06-25T01:09:47.513Z,12.75
2018-06-25T01:12:16.123Z,12.73
2018-06-25T01:14:45.365Z,12.68
2018-06-25T01:17:13.849Z,12.64
2018-06-25T01:19:42.690Z,12.62
2018-06-25T01:22:11.443Z,12.59
2018-06-25T01:24:40.334Z,12.59
2018-06-25T01:27:10.274Z,12.53
2018-06-25T01:29:40.473Z,12.52
2018-06-25T01:32:09.680Z,12.52
2018-06-25T01:34:38.357Z,12.48
2018-06-25T01:37:06.830Z,12.49
2018-06-25T01:39:35.468Z,12.51
2018-06-25T01:42:03.913Z,12.51
2018-06-25T01:44:32.461Z,12.48
2018-06-25T01:47:01.510Z,12.46
2018-06-25T01:49:29.946Z,12.47
2018-06-25T01:51:58.461Z,12.47
2018-06-25T01:54:26.939Z,12.48
2018-06-25T01:56:55.389Z,12.48
2018-06-25T01:59:23.925Z,12.46
2018-06-25T02:01:52.773Z,12.47
2018-06-25T02:04:21.221Z,12.49
2018-06-25T02:06:49.743Z,12.49
2018-06-25T02:09:18.462Z,12.48
2018-06-25T02:11:53.413Z,12.48
2018-06-25T02:14:22.026Z,12.51
2018-06-25T02:16:50.478Z,12.57
2018-06-25T02:19:18.931Z,12.59
2018-06-25T02:21:47.993Z,12.61
2018-06-25T02:24:16.425Z,12.65
2018-06-25T02:26:44.897Z,12.70
2018-06-25T02:29:13.849Z,12.75
2018-06-25T02:31:42.256Z,12.80
2018-06-25T02:34:11.013Z,12.83
2018-06-25T02:36:39.594Z,12.88
2018-06-25T02:39:10.094Z,12.90
2018-06-25T02:41:38.817Z,12.95
2018-06-25T02:44:08.093Z,12.97
2018-06-25T02:46:38.006Z,13.00
2018-06-25T02:49:06.626Z,13.01
2018-06-25T02:51:35.390Z,13.04
2018-06-25T02:54:04.430Z,13.06
2018-06-25T02:56:32.998Z,13.08
2018-06-25T02:59:01.671Z,13.12
2018-06-25T03:01:30.097Z,13.15
2018-06-25T03:03:58.721Z,13.18
2018-06-25T03:06:34.173Z,13.20
2018-06-25T03:09:02.729Z,13.25
2018-06-25T03:11:31.352Z,13.28
2018-06-25T03:13:59.856Z,13.31
2018-06-25T03:16:28.309Z,13.33
2018-06-25T03:18:57.165Z,13.37
2018-06-25T03:21:25.753Z,13.40
2018-06-25T03:23:54.217Z,13.44
2018-06-25T03:26:22.735Z,13.47
2018-06-25T03:28:51.249Z,13.50
2018-06-25T03:31:19.722Z,13.51
2018-06-25T03:33:48.317Z,13.55
2018-06-25T03:36:17.233Z,13.58
2018-06-25T03:38:45.788Z,13.63
2018-06-25T03:41:14.228Z,13.67
2018-06-25T03:43:42.773Z,13.69
2018-06-25T03:46:11.275Z,13.73
2018-06-25T03:48:39.701Z,13.77
2018-06-25T03:51:08.617Z,13.79
2018-06-25T03:53:37.182Z,13.83
2018-06-25T03:56:05.737Z,13.85
2018-06-25T03:58:34.409Z,13.89
2018-06-25T04:01:03.264Z,13.92
2018-06-25T04:03:31.756Z,13.94
2018-06-25T04:06:00.269Z,13.97
2018-06-25T04:08:28.842Z,14.00
2018-06-25T04:10:57.285Z,14.04
2018-06-25T04:13:25.945Z,14.08
2018-06-25T04:15:54.750Z,14.09
2018-06-25T04:18:23.439Z,14.15
2018-06-25T04:20:51.949Z,14.18
2018-06-25T04:23:20.497Z,14.22
2018-06-25T04:25:49.137Z,14.27
2018-06-25T04:28:18.023Z,14.32
2018-06-25T04:30:46.536Z,14.39
2018-06-25T04:33:15.205Z,14.41
2018-06-25T04:35:43.786Z,14.43
2018-06-25T04:38:12.255Z,14.44
2018-06-25T04:40:41.261Z,14.46
2018-06-25T04:43:09.921Z,14.50
2018-06-25T04:45:38.374Z,14.53
2018-06-25T04:48:07.013Z,14.58
2018-06-25T04:50:35.649Z,14.63
2018-06-25T04:53:04.145Z,14.69
2018-06-25T04:55:32.746Z,14.74
2018-06-25T04:58:01.415Z,14.83
2018-06-25T05:00:29.922Z,14.91
2018-06-25T05:02:59.194Z,15.02
2018-06-25T05:05:28.134Z,15.10
2018-06-25T05:07:56.593Z,15.15
2018-06-25T05:10:25.758Z,15.24
2018-06-25T05:12:54.258Z,15.30
2018-06-25T05:15:22.789Z,15.37
2018-06-25T05:17:51.218Z,15.42
2018-06-25T05:20:20.098Z,15.46
2018-06-25T05:22:48.709Z,15.55
2018-06-25T05:25:17.125Z,15.63
2018-06-25T05:27:45.871Z,15.68
2018-06-25T05:30:14.347Z,15.70
2018-06-25T05:32:42.894Z,15.70
2018-06-25T05:35:12.017Z,15.73
2018-06-25T05:37:40.865Z,15.79
2018-06-25T05:40:09.297Z,15.82
2018-06-25T05:42:37.858Z,15.85
2018-06-25T05:45:06.671Z,15.93
2018-06-25T05:47:36.109Z,15.96
2018-06-25T05:50:05.379Z,16.00
2018-06-25T05:52:34.836Z,16.02
2018-06-25T05:55:03.465Z,16.05
2018-06-25T05:57:32.826Z,16.08
2018-06-25T06:00:01.283Z,16.09
2018-06-25T06:02:29.805Z,16.13
2018-06-25T06:04:58.422Z,16.18
2018-06-25T06:07:26.883Z,16.25
2018-06-25T06:09:55.337Z,16.32
2018-06-25T06:12:24.132Z,16.34
2018-06-25T06:14:52.575Z,16.39
2018-06-25T06:17:21.628Z,16.46
2018-06-25T06:19:50.514Z,16.53
2018-06-25T06:22:19.016Z,16.60
2018-06-25T06:24:47.454Z,16.65
2018-06-25T06:27:16.858Z,16.73
2018-06-25T06:29:45.310Z,16.80
2018-06-25T06:32:13.746Z,16.87
2018-06-25T06:34:42.273Z,16.92
2018-06-25T06:37:10.889Z,16.99
2018-06-25T06:39:39.332Z,17.09
2018-06-25T06:42:08.005Z,17.21
2018-06-25T06:44:36.558Z,17.34
2018-06-25T06:47:05.034Z,17.45
2018-06-25T06:49:33.741Z,17.57
2018-06-25T06:52:02.242Z,17.68
2018-06-25T06:54:30.753Z,17.81
2018-06-25T06:56:59.473Z,17.90
2018-06-25T06:59:27.944Z,17.98
2018-06-25T07:01:56.530Z,18.09
2018-06-25T07:04:25.333Z,18.21
2018-06-25T07:06:53.807Z,18.38
2018-06-25T07:09:22.540Z,18.49
2018-06-25T07:11:51.878Z,18.59
2018-06-25T07:14:20.493Z,18.73
2018-06-25T07:16:48.938Z,18.86
2018-06-25T07:19:17.634Z,18.92
2018-06-25T07:21:46.291Z,18.96
2018-06-25T07:24:14.747Z,19.01
2018-06-25T07:26:43.204Z,19.19
2018-06-25T07:29:11.924Z,19.33
2018-06-25T07:31:41.262Z,19.52
2018-06-25T07:34:10.130Z,19.73
2018-06-25T07:36:38.702Z,19.98
2018-06-25T07:39:08.798Z,20.30
2018-06-25T07:41:37.327Z,20.69
2018-06-25T07:44:06.257Z,21.25
2018-06-25T07:46:34.811Z,21.95
2018-06-25T07:49:03.467Z,22.68
2018-06-25T07:51:32.317Z,23.26
2018-06-25T07:54:00.849Z,23.91
2018-06-25T07:56:29.519Z,24.55
2018-06-25T07:58:58.373Z,25.06
2018-06-25T08:01:26.825Z,25.51
2018-06-25T08:03:55.346Z,25.87
2018-06-25T08:06:23.926Z,26.26
2018-06-25T08:08:52.529Z,26.66
2018-06-25T08:11:21.049Z,27.08
2018-06-25T08:13:49.782Z,27.32
2018-06-25T08:16:18.255Z,27.47
2018-06-25T08:18:46.803Z,27.54
2018-06-25T08:21:15.320Z,27.72
2018-06-25T08:23:43.845Z,27.94
2018-06-25T08:26:12.357Z,28.05
2018-06-25T08:28:41.534Z,28.09
2018-06-25T08:31:10.082Z,28.03
2018-06-25T08:33:39.726Z,28.03
2018-06-25T08:36:08.209Z,28.22
2018-06-25T08:38:36.725Z,28.39
2018-06-25T08:41:06.071Z,28.53
2018-06-25T08:43:34.597Z,28.44
2018-06-25T08:46:03.390Z,28.31
2018-06-25T08:48:32.233Z,28.19
2018-06-25T08:51:00.673Z,27.84
2018-06-25T08:53:29.190Z,27.67
2018-06-25T08:55:57.741Z,27.83
2018-06-25T08:58:26.213Z,27.87
2018-06-25T09:00:54.856Z,27.92
2018-06-25T09:03:23.398Z,28.08
2018-06-25T09:05:51.966Z,28.18
2018-06-25T09:08:20.473Z,28.23
2018-06-25T09:10:49.062Z,28.57
2018-06-25T09:13:17.522Z,28.74
2018-06-25T09:15:46.074Z,28.96
2018-06-25T09:18:14.816Z,29.31
2018-06-25T09:20:43.357Z,29.54
2018-06-25T09:23:12.013Z,29.55
2018-06-25T09:25:40.865Z,29.52
2018-06-25T09:28:09.332Z,29.60
2018-06-25T09:30:37.955Z,29.72
2018-06-25T09:33:06.640Z,29.76
2018-06-25T09:35:35.141Z,29.79
2018-06-25T09:38:04.048Z,29.96
2018-06-25T09:40:32.769Z,30.13
2018-06-25T09:43:01.392Z,30.29
2018-06-25T09:45:29.954Z,30.36
2018-06-25T09:47:58.597Z,30.44
2018-06-25T09:50:27.053Z,30.50
2018-06-25T09:52:55.570Z,30.14
2018-06-25T09:55:23.989Z,30.30
2018-06-25T09:57:52.490Z,30.48
2018-06-25T10:00:26.214Z,30.62
2018-06-25T10:02:55.350Z,30.38
2018-06-25T10:05:24.084Z,30.26
2018-06-25T10:07:52.513Z,30.43
2018-06-25T10:10:21.178Z,30.54
2018-06-25T10:12:49.986Z,30.63
2018-06-25T10:15:18.429Z,30.71
2018-06-25T10:17:47.282Z,30.75
2018-06-25T10:20:16.085Z,30.69
2018-06-25T10:22:44.521Z,30.63
2018-06-25T10:25:13.202Z,30.60
2018-06-25T10:27:41.833Z,30.61
2018-06-25T10:30:10.273Z,30.69
2018-06-25T10:32:39.109Z,30.92
2018-06-25T10:35:07.550Z,31.03
2018-06-25T10:37:36.122Z,31.02
2018-06-25T10:40:05.169Z,31.00
2018-06-25T10:42:33.647Z,30.88
2018-06-25T10:45:02.293Z,30.74
2018-06-25T10:47:31.286Z,30.89
2018-06-25T10:49:59.749Z,31.05
2018-06-25T10:52:28.872Z,31.13
2018-06-25T10:54:57.901Z,31.05
2018-06-25T10:57:26.552Z,31.09
2018-06-25T10:59:55.104Z,31.16
2018-06-25T11:02:23.777Z,31.13
2018-06-25T11:04:52.305Z,31.14
2018-06-25T11:07:20.776Z,31.13
2018-06-25T11:09:49.701Z,31.17
2018-06-25T11:12:18.153Z,31.33
2018-06-25T11:14:46.610Z,31.38
2018-06-25T11:17:15.549Z,31.44
2018-06-25T11:19:44.000Z,31.51
2018-06-25T11:22:12.435Z,31.60
2018-06-25T11:24:41.388Z,31.54
2018-06-25T11:27:10.047Z,31.59
2018-06-25T11:29:38.258Z,31.59
2018-06-25T11:32:08.525Z,31.57
2018-06-25T11:34:37.058Z,31.46
2018-06-25T11:37:05.606Z,31.24
2018-06-25T11:39:34.637Z,31.18
2018-06-25T11:42:03.193Z,30.94
2018-06-25T11:44:31.770Z,30.80
2018-06-25T11:47:00.962Z,30.88
2018-06-25T11:49:30.330Z,30.88
2018-06-25T11:51:58.907Z,30.75
2018-06-25T11:54:28.165Z,30.65
2018-06-25T11:56:56.883Z,30.60
2018-06-25T11:59:25.530Z,30.67
2018-06-25T12:01:54.862Z,30.65
2018-06-25T12:04:23.569Z,30.62
2018-06-25T12:06:53.057Z,30.50
2018-06-25T12:09:22.071Z,30.41
2018-06-25T12:11:50.958Z,30.45
2018-06-25T12:14:19.733Z,30.50
2018-06-25T12:16:48.901Z,30.79
2018-06-25T12:19:17.745Z,31.13
2018-06-25T12:21:46.172Z,31.12
2018-06-25T12:24:15.590Z,31.12
2018-06-25T12:26:44.033Z,31.15
2018-06-25T12:29:12.783Z,31.13
2018-06-25T12:31:41.810Z,31.41
2018-06-25T12:34:10.244Z,31.63
2018-06-25T12:36:38.766Z,31.54
2018-06-25T12:39:09.518Z,31.06
2018-06-25T12:41:37.961Z,31.04
2018-06-25T12:44:07.030Z,31.37
2018-06-25T12:46:36.142Z,31.48
2018-06-25T12:49:04.870Z,31.67
2018-06-25T12:51:33.373Z,31.90
2018-06-25T12:54:02.076Z,31.71
2018-06-25T12:56:30.493Z,31.93
2018-06-25T12:58:58.970Z,32.07
2018-06-25T13:01:28.229Z,32.47
2018-06-25T13:03:57.361Z,32.64
2018-06-25T13:06:25.837Z,32.40
2018-06-25T13:08:54.482Z,32.59
2018-06-25T13:11:22.973Z,32.79
2018-06-25T13:13:51.476Z,33.08
2018-06-25T13:16:19.999Z,33.63
2018-06-25T13:18:48.761Z,34.24
2018-06-25T13:21:17.446Z,34.22
2018-06-25T13:23:46.115Z,34.24
2018-06-25T13:26:14.546Z,34.27
2018-06-25T13:28:43.049Z,34.26
2018-06-25T13:31:11.733Z,34.38
2018-06-25T13:33:40.265Z,34.66
2018-06-25T13:36:08.706Z,34.59
2018-06-25T13:38:37.573Z,33.99
2018-06-25T13:41:06.547Z,33.83
2018-06-25T13:43:35.739Z,34.42
2018-06-25T13:46:04.374Z,34.63
2018-06-25T13:48:32.809Z,34.61
2018-06-25T13:51:01.357Z,34.05
2018-06-25T13:53:29.905Z,34.04
2018-06-25T13:55:58.344Z,34.14
2018-06-25T13:58:26.785Z,34.39
2018-06-25T14:00:55.374Z,34.86
2018-06-25T14:03:30.158Z,34.71
2018-06-25T14:05:59.541Z,34.56
2018-06-25T14:08:27.985Z,34.09
2018-06-25T14:10:56.513Z,33.95
2018-06-25T14:13:25.690Z,33.39
2018-06-25T14:15:54.142Z,33.24
2018-06-25T14:18:22.569Z,33.09
2018-06-25T14:20:51.625Z,32.63
2018-06-25T14:23:20.130Z,31.89
2018-06-25T14:25:53.985Z,31.17
2018-06-25T14:28:27.878Z,30.23
2018-06-25T14:31:02.533Z,29.60
2018-06-25T14:33:36.337Z,29.39
2018-06-25T14:36:04.918Z,29.01
2018-06-25T14:38:33.434Z,28.71
2018-06-25T14:41:02.286Z,28.46
2018-06-25T14:43:31.056Z,28.24
2018-06-25T14:45:59.554Z,28.02
2018-06-25T14:48:27.995Z,27.75
2018-06-25T14:50:57.186Z,27.45
2018-06-25T14:53:25.829Z,27.13
2018-06-25T14:55:54.269Z,26.84
2018-06-25T14:58:22.967Z,26.54
2018-06-25T15:00:52.221Z,26.35
2018-06-25T15:03:20.641Z,26.17
2018-06-25T15:05:49.500Z,26.05
2018-06-25T15:08:17.953Z,25.90
2018-06-25T15:10:46.403Z,25.88
2018-06-25T15:13:18.064Z,25.87
2018-06-25T15:15:46.632Z,25.91
2018-06-25T15:18:15.125Z,25.78
2018-06-25T15:20:43.730Z,25.64
2018-06-25T15:23:12.538Z,25.54
2018-06-25T15:25:40.995Z,25.38
2018-06-25T15:28:09.561Z,25.26
2018-06-25T15:30:38.145Z,25.16
2018-06-25T15:33:06.653Z,25.08
2018-06-25T15:35:35.181Z,25.17
2018-06-25T15:38:07.015Z,25.29
2018-06-25T15:40:36.233Z,25.28
2018-06-25T15:43:06.926Z,25.46
2018-06-25T15:45:35.637Z,25.46
2018-06-25T15:48:04.548Z,25.46
2018-06-25T15:50:33.141Z,25.49
2018-06-25T15:53:01.722Z,25.52
2018-06-25T15:55:31.285Z,25.46
2018-06-25T15:57:59.974Z,25.53
2018-06-25T16:00:28.585Z,25.90
2018-06-25T16:02:57.175Z,26.33
2018-06-25T16:05:26.034Z,26.76
2018-06-25T16:07:54.483Z,26.76
2018-06-25T16:10:23.206Z,26.85
2018-06-25T16:12:51.813Z,26.69
2018-06-25T16:15:20.602Z,26.45
2018-06-25T16:17:49.065Z,26.41
2018-06-25T16:20:17.665Z,26.69
2018-06-25T16:22:46.357Z,26.59
2018-06-25T16:25:14.937Z,26.24
2018-06-25T16:27:43.598Z,25.93
2018-06-25T16:30:12.067Z,25.79
2018-06-25T16:32:40.619Z,25.61
2018-06-25T16:35:09.161Z,25.47
2018-06-25T16:37:37.647Z,25.28
2018-06-25T16:40:06.721Z,25.05
2018-06-25T16:42:36.101Z,24.83
2018-06-25T16:45:04.850Z,24.74
2018-06-25T16:47:33.678Z,24.51
2018-06-25T16:50:02.426Z,24.38
2018-06-25T16:52:31.188Z,24.31
2018-06-25T16:54:59.979Z,24.32
2018-06-25T16:57:28.505Z,24.36
2018-06-25T16:59:57.144Z,24.16
2018-06-25T17:02:25.649Z,24.09
2018-06-25T17:04:54.632Z,24.03
2018-06-25T17:07:23.097Z,23.93
2018-06-25T17:09:51.655Z,23.86
2018-06-25T17:12:21.233Z,23.81
2018-06-25T17:14:49.799Z,23.77
2018-06-25T17:17:18.473Z,23.74
2018-06-25T17:19:46.985Z,23.68
2018-06-25T17:22:15.453Z,23.59
2018-06-25T17:24:44.048Z,23.50
2018-06-25T17:27:12.590Z,23.40
2018-06-25T17:29:41.332Z,23.28
2018-06-25T17:32:10.570Z,23.25
2018-06-25T17:34:39.151Z,23.32
2018-06-25T17:37:07.610Z,23.35
2018-06-25T17:39:36.667Z,23.32
2018-06-25T17:42:05.721Z,23.20
2018-06-25T17:44:34.389Z,23.19
2018-06-25T17:47:02.881Z,23.20
2018-06-25T17:49:31.770Z,23.16
2018-06-25T17:52:00.238Z,23.04
2018-06-25T17:54:28.742Z,22.91
2018-06-25T17:56:57.770Z,22.90
2018-06-25T17:59:26.313Z,22.84
2018-06-25T18:01:55.002Z,22.83
2018-06-25T18:04:24.186Z,22.80
2018-06-25T18:06:52.640Z,22.79
2018-06-25T18:09:21.404Z,22.80
2018-06-25T18:11:49.969Z,22.72
2018-06-25T18:14:18.877Z,22.71
2018-06-25T18:16:47.789Z,22.71
2018-06-25T18:19:16.777Z,22.62
2018-06-25T18:21:45.243Z,22.56
2018-06-25T18:24:14.338Z,22.52
2018-06-25T18:26:42.855Z,22.49
2018-06-25T18:29:17.950Z,22.44
2018-06-25T18:31:46.493Z,22.43
2018-06-25T18:34:14.944Z,22.47
2018-06-25T18:36:43.697Z,22.49
2018-06-25T18:39:13.921Z,22.48
2018-06-25T18:41:43.390Z,22.49
2018-06-25T18:44:12.076Z,22.51
2018-06-25T18:46:40.540Z,22.50
2018-06-25T18:49:09.052Z,22.50
2018-06-25T18:51:37.966Z,22.50
2018-06-25T18:54:06.426Z,22.49
2018-06-25T18:56:34.978Z,22.47
2018-06-25T18:59:03.731Z,22.42
2018-06-25T19:01:32.229Z,22.35
2018-06-25T19:04:00.704Z,22.28
2018-06-25T19:06:29.285Z,22.26
2018-06-25T19:08:57.729Z,22.23
2018-06-25T19:11:26.853Z,22.21
2018-06-25T19:13:55.435Z,22.18
2018-06-25T19:16:23.891Z,22.14
2018-06-25T19:18:52.351Z,22.10
2018-06-25T19:21:21.224Z,22.04
2018-06-25T19:23:49.682Z,21.98
2018-06-25T19:26:18.194Z,21.94
2018-06-25T19:28:46.965Z,21.90
2018-06-25T19:31:15.418Z,21.88
2018-06-25T19:33:43.963Z,21.84
2018-06-25T19:36:12.781Z,21.62
2018-06-25T19:38:41.455Z,21.70
2018-06-25T19:41:09.998Z,21.59
2018-06-25T19:43:38.631Z,21.47
2018-06-25T19:46:07.162Z,21.31
2018-06-25T19:48:35.723Z,21.16
2018-06-25T19:51:05.790Z,20.99
2018-06-25T19:53:34.472Z,20.88
2018-06-25T19:56:03.432Z,20.82
2018-06-25T19:58:31.946Z,20.76
2018-06-25T20:01:00.426Z,20.70
2018-06-25T20:03:29.121Z,20.61
2018-06-25T20:05:57.596Z,20.58
2018-06-25T20:08:26.182Z,20.48
2018-06-25T20:10:54.690Z,20.33
2018-06-25T20:13:23.205Z,20.24
2018-06-25T20:15:51.748Z,20.19
2018-06-25T20:18:20.245Z,20.19
2018-06-25T20:20:50.353Z,20.15
2018-06-25T20:23:19.506Z,20.14
2018-06-25T20:25:50.022Z,20.12
2018-06-25T20:28:18.659Z,20.08
2018-06-25T20:30:47.122Z,20.01
2018-06-25T20:33:15.925Z,19.92
2018-06-25T20:35:45.832Z,19.85
2018-06-25T20:38:14.965Z,19.76
2018-06-25T20:40:43.661Z,19.68
2018-06-25T20:43:12.302Z,19.58
2018-06-25T20:45:41.273Z,19.52
2018-06-25T20:48:09.770Z,19.45
2018-06-25T20:50:38.237Z,19.40
2018-06-25T20:53:06.744Z,19.35
2018-06-25T20:55:35.953Z,19.27
2018-06-25T20:58:04.450Z,19.21
2018-06-25T21:00:33.333Z,19.16
2018-06-25T21:03:02.113Z,19.08
2018-06-25T21:05:30.587Z,19.04
2018-06-25T21:07:59.355Z,18.96
2018-06-25T21:10:28.018Z,18.91
2018-06-25T21:12:56.522Z,18.88
2018-06-25T21:15:24.993Z,18.85
2018-06-25T21:17:53.607Z,18.80
2018-06-25T21:20:22.142Z,18.74
2018-06-25T21:22:50.602Z,18.67
2018-06-25T21:25:19.554Z,18.63
2018-06-25T21:27:48.012Z,18.63
2018-06-25T21:30:16.469Z,18.60
2018-06-25T21:32:45.157Z,18.57
2018-06-25T21:35:13.597Z,18.53
2018-06-25T21:37:42.065Z,18.47
2018-06-25T21:40:10.633Z,18.41
2018-06-25T21:42:39.137Z,18.35
2018-06-25T21:45:07.693Z,18.28
2018-06-25T21:47:36.284Z,18.21
2018-06-25T21:50:04.942Z,18.12
2018-06-25T21:52:33.387Z,18.03
2018-06-25T21:55:01.962Z,17.98
2018-06-25T21:57:30.474Z,17.94
2018-06-25T21:59:58.902Z,17.88
2018-06-25T22:02:27.837Z,17.88
2018-06-25T22:04:56.289Z,17.91
2018-06-25T22:07:24.847Z,17.91
2018-06-25T22:09:54.783Z,17.86
2018-06-25T22:12:25.082Z,17.76
2018-06-25T22:14:54.979Z,17.73
2018-06-25T22:17:26.347Z,16.89
2018-06-25T22:19:55.873Z,17.60
2018-06-25T22:22:24.885Z,17.58
2018-06-25T22:24:54.418Z,17.57
2018-06-25T22:27:23.377Z,17.58
2018-06-25T22:29:51.841Z,17.58
2018-06-25T22:32:20.362Z,17.57
2018-06-25T22:34:48.894Z,17.56
2018-06-25T22:37:17.325Z,17.56
2018-06-25T22:39:45.850Z,17.52
2018-06-25T22:42:14.445Z,17.48
2018-06-25T22:44:42.865Z,17.44
2018-06-25T22:47:11.807Z,17.38
2018-06-25T22:49:40.609Z,17.33
2018-06-25T22:52:09.033Z,17.27
2018-06-25T22:54:37.629Z,17.28
2018-06-25T22:57:06.786Z,17.28
2018-06-25T22:59:35.349Z,17.29
2018-06-25T23:02:05.077Z,17.20
2018-06-25T23:04:34.169Z,17.09
2018-06-25T23:07:02.613Z,16.97
2018-06-25T23:09:31.993Z,16.89
2018-06-25T23:12:00.589Z,16.82
2018-06-25T23:14:29.542Z,16.75
2018-06-25T23:16:58.354Z,16.70
2018-06-25T23:19:26.828Z,16.66
2018-06-25T23:21:55.328Z,16.63
2018-06-25T23:24:23.949Z,16.61
2018-06-25T23:26:52.826Z,16.58
2018-06-25T23:29:21.334Z,16.54
2018-06-25T23:31:49.950Z,16.54
2018-06-25T23:34:18.395Z,16.56
2018-06-25T23:36:46.837Z,16.58
2018-06-25T23:39:16.094Z,16.60
2018-06-25T23:41:45.224Z,16.64
2018-06-25T23:44:13.710Z,16.67
2018-06-25T23:46:42.301Z,16.68
2018-06-25T23:49:10.977Z,16.69
2018-06-25T23:51:39.413Z,16.71
2018-06-25T23:54:08.013Z,16.75
2018-06-25T23:56:36.494Z,16.82
2018-06-25T23:59:04.934Z,16.87
